createdAt,value
2018-04-07T00:02:02.768Z,3.17
2018-04-07T00:04:29.028Z,2.40
2018-04-07T00:06:55.290Z,2.90
2018-04-07T00:09:21.552Z,2.67
2018-04-07T00:11:47.792Z,3.00
2018-04-07T00:14:14.041Z,2.83
2018-04-07T00:16:40.296Z,3.13
2018-04-07T00:19:06.533Z,2.80
2018-04-07T00:21:32.788Z,2.70
2018-04-07T00:23:59.088Z,2.60
2018-04-07T00:26:25.342Z,2.90
2018-04-07T00:28:51.580Z,2.50
2018-04-07T00:31:17.837Z,3.07
2018-04-07T00:33:44.076Z,2.70
2018-04-07T00:36:10.340Z,2.73
2018-04-07T00:38:36.572Z,2.93
2018-04-07T00:41:02.809Z,2.80
2018-04-07T00:43:29.100Z,2.73
2018-04-07T00:45:55.341Z,2.80
2018-04-07T00:48:21.633Z,2.90
2018-04-07T00:50:47.865Z,3.23
2018-04-07T00:53:14.123Z,3.87
2018-04-07T00:55:40.386Z,3.93
2018-04-07T00:58:06.705Z,2.60
2018-04-07T01:00:32.980Z,2.70
2018-04-07T01:02:59.225Z,3.17
2018-04-07T01:05:25.515Z,3.40
2018-04-07T01:07:51.753Z,3.30
2018-04-07T01:10:18.021Z,3.27
2018-04-07T01:12:44.305Z,3.43
2018-04-07T01:15:10.553Z,3.30
2018-04-07T01:17:36.844Z,2.97
2018-04-07T01:20:03.125Z,3.57
2018-04-07T01:22:29.344Z,3.23
2018-04-07T01:24:55.608Z,3.53
2018-04-07T01:27:21.832Z,3.50
2018-04-07T01:29:48.113Z,4.10
2018-04-07T01:32:14.340Z,3.60
2018-04-07T01:34:40.626Z,3.20
2018-04-07T01:37:07.123Z,4.00
2018-04-07T01:39:33.401Z,4.03
2018-04-07T01:41:59.721Z,3.67
2018-04-07T01:44:25.983Z,4.23
2018-04-07T01:46:52.229Z,3.90
2018-04-07T01:49:18.500Z,4.03
2018-04-07T01:51:44.737Z,3.47
2018-04-07T01:54:10.995Z,4.23
2018-04-07T01:56:37.232Z,3.53
2018-04-07T01:59:03.484Z,3.93
2018-04-07T02:01:29.765Z,4.40
2018-04-07T02:03:56.021Z,3.67
2018-04-07T02:06:22.295Z,4.70
2018-04-07T02:08:48.520Z,3.27
2018-04-07T02:11:14.756Z,4.23
2018-04-07T02:13:41.008Z,3.90
2018-04-07T02:16:07.250Z,4.30
2018-04-07T02:18:33.500Z,3.80
2018-04-07T02:20:59.738Z,4.10
2018-04-07T02:23:25.977Z,3.57
2018-04-07T02:25:52.251Z,3.47
2018-04-07T02:28:18.489Z,4.27
2018-04-07T02:30:44.722Z,3.43
2018-04-07T02:33:11.021Z,3.40
2018-04-07T02:35:37.270Z,4.10
2018-04-07T02:38:03.506Z,4.03
2018-04-07T02:40:29.768Z,3.53
2018-04-07T02:42:56.017Z,3.77
2018-04-07T02:45:23.240Z,3.93
2018-04-07T02:47:49.505Z,3.43
2018-04-07T02:50:15.756Z,4.23
2018-04-07T02:52:42.023Z,3.70
2018-04-07T02:55:08.286Z,4.33
2018-04-07T02:57:34.536Z,4.20
2018-04-07T03:00:00.784Z,3.83
2018-04-07T03:02:27.042Z,4.27
2018-04-07T03:04:53.280Z,3.83
2018-04-07T03:07:19.507Z,4.10
2018-04-07T03:09:45.772Z,4.13
2018-04-07T03:12:12.024Z,3.67
2018-04-07T03:14:38.269Z,3.90
2018-04-07T03:17:04.549Z,4.10
2018-04-07T03:19:30.885Z,4.40
2018-04-07T03:21:57.121Z,4.20
2018-04-07T03:24:23.385Z,4.03
2018-04-07T03:26:49.633Z,4.33
2018-04-07T03:29:15.869Z,4.40
2018-04-07T03:31:42.198Z,4.30
2018-04-07T03:34:08.437Z,4.07
2018-04-07T03:36:34.673Z,21.73
2018-04-07T03:39:00.945Z,11.17
2018-04-07T03:41:27.209Z,4.77
2018-04-07T03:43:53.450Z,4.20
2018-04-07T03:46:19.757Z,4.40
2018-04-07T03:48:46.020Z,4.53
2018-04-07T03:51:12.304Z,4.07
2018-04-07T03:53:38.713Z,3.33
2018-04-07T03:56:04.960Z,4.50
2018-04-07T03:58:31.227Z,3.90
2018-04-07T04:00:57.532Z,4.27
2018-04-07T04:03:23.779Z,4.13
2018-04-07T04:05:50.125Z,4.27
2018-04-07T04:08:16.384Z,4.70
2018-04-07T04:10:42.619Z,4.87
2018-04-07T04:13:08.873Z,4.77
2018-04-07T04:15:35.141Z,4.23
2018-04-07T04:18:01.377Z,4.07
2018-04-07T04:20:27.677Z,4.10
2018-04-07T04:22:53.956Z,4.17
2018-04-07T04:25:20.208Z,4.00
2018-04-07T04:27:46.445Z,3.70
2018-04-07T04:30:12.721Z,10.63
2018-04-07T04:32:38.960Z,12.67
2018-04-07T04:35:05.206Z,5.67
2018-04-07T04:37:31.468Z,4.40
2018-04-07T04:39:57.697Z,5.60
2018-04-07T04:42:23.954Z,4.33
2018-04-07T04:44:50.225Z,4.73
2018-04-07T04:47:16.453Z,4.53
2018-04-07T04:49:42.713Z,4.20
2018-04-07T04:52:08.977Z,5.07
2018-04-07T04:54:35.213Z,3.80
2018-04-07T04:57:01.481Z,4.03
2018-04-07T04:59:27.754Z,3.97
2018-04-07T05:01:53.997Z,3.50
2018-04-07T05:04:20.260Z,4.17
2018-04-07T05:06:46.535Z,4.63
2018-04-07T05:09:12.784Z,4.00
2018-04-07T05:11:39.021Z,3.80
2018-04-07T05:14:05.289Z,4.43
2018-04-07T05:16:31.562Z,4.23
2018-04-07T05:18:57.808Z,4.60
2018-04-07T05:21:24.065Z,3.53
2018-04-07T05:23:50.300Z,3.93
2018-04-07T05:26:16.541Z,4.40
2018-04-07T05:28:42.891Z,4.03
2018-04-07T05:31:09.136Z,3.83
2018-04-07T05:33:35.365Z,4.07
2018-04-07T05:36:01.634Z,6.20
2018-04-07T05:38:27.917Z,4.57
2018-04-07T05:40:54.176Z,4.27
2018-04-07T05:43:20.457Z,4.40
2018-04-07T05:45:46.719Z,4.03
2018-04-07T05:48:13.008Z,4.50
2018-04-07T05:50:39.280Z,4.00
2018-04-07T05:53:05.578Z,3.73
2018-04-07T05:55:31.840Z,4.10
2018-04-07T05:57:58.104Z,3.83
2018-04-07T06:00:24.363Z,3.47
2018-04-07T06:02:50.618Z,3.27
2018-04-07T06:05:18.122Z,3.30
2018-04-07T06:07:44.432Z,3.13
2018-04-07T06:10:10.737Z,3.80
2018-04-07T06:12:37.221Z,3.67
2018-04-07T06:15:03.493Z,3.17
2018-04-07T06:17:29.777Z,7.43
2018-04-07T06:19:56.145Z,4.87
2018-04-07T06:22:22.476Z,3.30
2018-04-07T06:24:48.705Z,4.27
2018-04-07T06:27:15.100Z,3.23
2018-04-07T06:29:41.370Z,3.50
2018-04-07T06:32:07.630Z,4.00
2018-04-07T06:34:33.896Z,4.03
2018-04-07T06:37:00.146Z,3.70
2018-04-07T06:39:26.394Z,4.93
2018-04-07T06:41:52.771Z,4.03
2018-04-07T06:44:18.998Z,3.17
2018-04-07T06:46:45.282Z,3.27
2018-04-07T06:49:11.597Z,3.20
2018-04-07T06:51:37.836Z,3.20
2018-04-07T06:54:04.078Z,3.30
2018-04-07T06:56:30.361Z,3.10
2018-04-07T06:58:56.606Z,3.70
2018-04-07T07:01:22.868Z,2.97
2018-04-07T07:03:49.136Z,3.30
2018-04-07T07:06:15.381Z,3.27
2018-04-07T07:08:41.668Z,3.37
2018-04-07T07:11:08.025Z,3.97
2018-04-07T07:13:34.266Z,3.57
2018-04-07T07:16:00.516Z,2.70
2018-04-07T07:18:26.854Z,2.73
2018-04-07T07:20:53.142Z,3.43
2018-04-07T07:23:19.365Z,2.90
2018-04-07T07:25:45.761Z,3.50
2018-04-07T07:28:12.002Z,3.63
2018-04-07T07:30:38.276Z,2.90
2018-04-07T07:33:05.623Z,4.50
2018-04-07T07:35:31.971Z,4.07
2018-04-07T07:37:58.209Z,3.00
2018-04-07T07:40:24.509Z,3.30
2018-04-07T07:42:50.780Z,3.03
2018-04-07T07:45:17.018Z,2.90
2018-04-07T07:47:43.776Z,2.97
2018-04-07T07:50:10.001Z,3.50
2018-04-07T07:52:36.252Z,2.77
2018-04-07T07:55:02.581Z,5.40
2018-04-07T07:57:28.824Z,3.97
2018-04-07T07:59:55.066Z,3.00
2018-04-07T08:02:21.380Z,2.70
2018-04-07T08:04:47.682Z,2.97
2018-04-07T08:07:13.928Z,3.03
2018-04-07T08:09:40.250Z,3.47
2018-04-07T08:12:06.508Z,5.27
2018-04-07T08:14:32.788Z,3.10
2018-04-07T08:16:59.085Z,3.10
2018-04-07T08:19:25.332Z,3.23
2018-04-07T08:21:51.591Z,3.10
2018-04-07T08:24:17.881Z,3.60
2018-04-07T08:26:44.840Z,3.17
2018-04-07T08:29:12.380Z,3.70
2018-04-07T08:31:38.725Z,3.40
2018-04-07T08:34:05.000Z,2.85
2018-04-07T08:36:31.283Z,3.28
2018-04-07T08:38:57.597Z,3.05
2018-04-07T08:41:23.835Z,3.10
2018-04-07T08:43:50.069Z,2.35
2018-04-07T08:46:17.277Z,2.60
2018-04-07T08:48:43.569Z,3.15
2018-04-07T08:51:09.859Z,2.60
2018-04-07T08:53:36.166Z,2.80
2018-04-07T08:56:02.434Z,2.83
2018-04-07T08:58:28.688Z,2.95
2018-04-07T09:00:54.949Z,2.00
2018-04-07T09:03:21.218Z,2.60
2018-04-07T09:05:47.484Z,2.70
2018-04-07T09:08:13.766Z,2.40
2018-04-07T09:10:40.025Z,2.40
2018-04-07T09:13:06.341Z,4.03
2018-04-07T09:15:32.616Z,3.05
2018-04-07T09:17:58.967Z,5.43
2018-04-07T09:20:25.265Z,14.32
2018-04-07T09:22:51.588Z,2.55
2018-04-07T09:25:17.842Z,3.12
2018-04-07T09:27:44.117Z,2.60
2018-04-07T09:30:10.412Z,2.42
2018-04-07T09:32:36.677Z,2.42
2018-04-07T09:35:02.978Z,5.37
2018-04-07T09:37:29.269Z,2.70
2018-04-07T09:39:55.676Z,2.67
2018-04-07T09:42:21.948Z,2.62
2018-04-07T09:44:48.258Z,2.70
2018-04-07T09:47:14.557Z,4.80
2018-04-07T09:49:40.882Z,3.58
2018-04-07T09:52:07.191Z,2.47
2018-04-07T09:54:33.585Z,2.65
2018-04-07T09:56:59.941Z,2.67
2018-04-07T09:59:26.244Z,2.70
2018-04-07T10:01:52.514Z,2.97
2018-04-07T10:04:18.820Z,3.25
2018-04-07T10:06:45.097Z,2.97
2018-04-07T10:09:11.373Z,2.55
2018-04-07T10:11:37.688Z,3.20
2018-04-07T10:14:03.969Z,3.70
2018-04-07T10:16:30.257Z,3.37
2018-04-07T10:18:56.537Z,2.95
2018-04-07T10:21:22.891Z,3.55
2018-04-07T10:23:49.134Z,3.35
2018-04-07T10:26:15.417Z,2.90
2018-04-07T10:28:41.731Z,2.70
2018-04-07T10:31:08.007Z,3.25
2018-04-07T10:33:34.285Z,2.60
2018-04-07T10:36:00.616Z,3.47
2018-04-07T10:38:26.857Z,4.70
2018-04-07T10:40:53.092Z,5.45
2018-04-07T10:43:19.409Z,2.87
2018-04-07T10:45:45.649Z,2.78
2018-04-07T10:48:11.913Z,2.97
2018-04-07T10:50:38.186Z,2.80
2018-04-07T10:53:04.450Z,2.70
2018-04-07T10:55:30.719Z,2.90
2018-04-07T10:57:57.004Z,2.45
2018-04-07T11:00:23.288Z,3.22
2018-04-07T11:02:49.580Z,4.62
2018-04-07T11:05:15.860Z,2.50
2018-04-07T11:07:42.111Z,2.37
2018-04-07T11:10:08.381Z,2.05
2018-04-07T11:12:34.679Z,2.37
2018-04-07T11:15:00.942Z,2.37
2018-04-07T11:17:27.189Z,2.97
2018-04-07T11:19:53.469Z,3.67
2018-04-07T11:22:19.785Z,2.78
2018-04-07T11:24:46.017Z,3.00
2018-04-07T11:27:12.336Z,2.70
2018-04-07T11:29:38.621Z,2.60
2018-04-07T11:32:04.881Z,2.42
2018-04-07T11:34:31.171Z,2.20
2018-04-07T11:36:57.548Z,2.47
2018-04-07T11:39:23.822Z,2.30
2018-04-07T11:41:50.157Z,2.40
2018-04-07T11:44:16.432Z,2.42
2018-04-07T11:46:42.723Z,2.35
2018-04-07T11:49:08.998Z,2.50
2018-04-07T11:51:35.305Z,2.40
2018-04-07T11:54:01.689Z,2.83
2018-04-07T11:56:28.007Z,2.28
2018-04-07T11:58:54.270Z,3.00
2018-04-07T12:01:20.509Z,2.75
2018-04-07T12:03:46.836Z,2.65
2018-04-07T12:06:13.092Z,3.08
2018-04-07T12:08:39.342Z,3.05
2018-04-07T12:11:05.613Z,2.92
2018-04-07T12:13:31.901Z,2.80
2018-04-07T12:15:58.149Z,3.17
2018-04-07T12:18:24.437Z,3.00
2018-04-07T12:20:51.036Z,3.42
2018-04-07T12:23:17.273Z,3.75
2018-04-07T12:25:43.532Z,3.55
2018-04-07T12:28:09.780Z,4.05
2018-04-07T12:30:36.015Z,3.92
2018-04-07T12:33:02.312Z,4.57
2018-04-07T12:35:28.593Z,4.35
2018-04-07T12:37:54.824Z,5.18
2018-04-07T12:40:21.112Z,4.20
2018-04-07T12:42:47.453Z,4.18
2018-04-07T12:45:13.681Z,4.10
2018-04-07T12:47:39.941Z,5.05
2018-04-07T12:50:06.180Z,4.50
2018-04-07T12:52:32.605Z,4.80
2018-04-07T12:54:58.947Z,5.00
2018-04-07T12:57:25.172Z,5.00
2018-04-07T12:59:51.409Z,4.53
2018-04-07T13:02:17.676Z,4.80
2018-04-07T13:04:43.946Z,4.12
2018-04-07T13:07:10.169Z,4.82
2018-04-07T13:09:37.344Z,5.12
2018-04-07T13:12:03.644Z,4.80
2018-04-07T13:14:30.032Z,4.55
2018-04-07T13:16:56.345Z,5.43
2018-04-07T13:19:22.624Z,5.00
2018-04-07T13:21:48.885Z,4.70
2018-04-07T13:24:15.154Z,5.75
2018-04-07T13:26:41.513Z,5.70
2018-04-07T13:29:07.756Z,5.32
2018-04-07T13:31:34.021Z,5.62
2018-04-07T13:34:00.293Z,6.00
2018-04-07T13:36:26.552Z,5.47
2018-04-07T13:38:52.833Z,10.80
2018-04-07T13:41:19.125Z,7.03
2018-04-07T13:43:45.356Z,5.85
2018-04-07T13:46:11.620Z,5.37
2018-04-07T13:48:37.942Z,6.25
2018-04-07T13:51:04.196Z,6.10
2018-04-07T13:53:30.456Z,6.40
2018-04-07T13:55:56.685Z,6.62
2018-04-07T13:58:22.912Z,7.20
2018-04-07T14:00:49.236Z,7.40
2018-04-07T14:03:15.476Z,12.73
2018-04-07T14:05:41.726Z,18.70
2018-04-07T14:08:08.004Z,7.12
2018-04-07T14:10:34.241Z,7.60
2018-04-07T14:13:00.491Z,7.53
2018-04-07T14:15:26.762Z,7.80
2018-04-07T14:17:52.993Z,8.20
2018-04-07T14:20:19.224Z,9.30
2018-04-07T14:22:45.503Z,10.45
2018-04-07T14:25:11.824Z,13.32
2018-04-07T14:27:38.050Z,8.23
2018-04-07T14:30:04.344Z,8.10
2018-04-07T14:32:30.567Z,8.23
2018-04-07T14:34:56.805Z,8.35
2018-04-07T14:37:23.116Z,9.15
2018-04-07T14:39:49.351Z,8.93
2018-04-07T14:42:15.588Z,8.07
2018-04-07T14:44:41.856Z,8.18
2018-04-07T14:47:08.146Z,8.02
2018-04-07T14:49:34.387Z,8.00
2018-04-07T14:52:00.679Z,7.97
2018-04-07T14:54:26.926Z,8.32
2018-04-07T14:56:53.313Z,8.15
2018-04-07T14:59:19.592Z,7.95
2018-04-07T15:01:45.820Z,20.05
2018-04-07T15:04:12.097Z,9.93
2018-04-07T15:06:38.361Z,9.13
2018-04-07T15:09:05.512Z,8.55
2018-04-07T15:11:31.765Z,8.38
2018-04-07T15:13:58.048Z,7.90
2018-04-07T15:16:24.356Z,8.43
2018-04-07T15:18:50.628Z,8.30
2018-04-07T15:21:16.919Z,7.72
2018-04-07T15:23:43.209Z,8.70
2018-04-07T15:26:09.481Z,8.23
2018-04-07T15:28:35.757Z,8.10
2018-04-07T15:31:01.988Z,8.20
2018-04-07T15:33:28.216Z,8.70
2018-04-07T15:35:54.506Z,8.30
2018-04-07T15:38:20.822Z,8.82
2018-04-07T15:40:47.125Z,9.40
2018-04-07T15:43:13.414Z,9.43
2018-04-07T15:45:39.700Z,10.38
2018-04-07T15:48:05.949Z,7.68
2018-04-07T15:50:32.212Z,7.47
2018-04-07T15:52:58.519Z,8.30
2018-04-07T15:55:24.808Z,6.70
2018-04-07T15:57:51.088Z,7.35
2018-04-07T16:00:17.313Z,6.95
2018-04-07T16:02:43.539Z,7.37
2018-04-07T16:05:09.838Z,6.82
2018-04-07T16:07:36.104Z,6.85
2018-04-07T16:10:02.408Z,15.98
2018-04-07T16:12:28.683Z,7.10
2018-04-07T16:14:54.998Z,6.50
2018-04-07T16:17:21.281Z,5.30
2018-04-07T16:19:47.632Z,6.00
2018-04-07T16:22:13.866Z,11.03
2018-04-07T16:24:40.209Z,18.60
2018-04-07T16:27:06.619Z,7.40
2018-04-07T16:29:32.997Z,6.03
2018-04-07T16:31:59.281Z,4.77
2018-04-07T16:34:25.559Z,4.37
2018-04-07T16:36:51.836Z,4.43
2018-04-07T16:39:18.101Z,4.23
2018-04-07T16:41:44.411Z,4.50
2018-04-07T16:44:10.756Z,3.03
2018-04-07T16:46:37.049Z,4.03
2018-04-07T16:49:03.344Z,4.50
2018-04-07T16:51:29.677Z,3.47
2018-04-07T16:53:55.908Z,5.70
2018-04-07T16:56:22.181Z,4.03
2018-04-07T16:58:48.422Z,2.40
2018-04-07T17:01:14.666Z,8.97
2018-04-07T17:03:40.948Z,7.10
2018-04-07T17:06:07.196Z,5.23
2018-04-07T17:08:33.446Z,4.27
2018-04-07T17:10:59.728Z,2.70
2018-04-07T17:13:25.972Z,6.10
2018-04-07T17:15:52.212Z,2.60
2018-04-07T17:18:18.552Z,3.20
2018-04-07T17:20:51.714Z,2.40
2018-04-07T17:23:18.027Z,2.90
2018-04-07T17:25:44.298Z,6.00
2018-04-07T17:28:10.521Z,4.60
2018-04-07T17:30:36.892Z,3.03
2018-04-07T17:33:03.132Z,2.77
2018-04-07T17:35:29.409Z,4.20
2018-04-07T17:37:55.673Z,5.20
2018-04-07T17:40:21.913Z,2.67
2018-04-07T17:42:48.236Z,2.93
2018-04-07T17:45:14.507Z,5.73
2018-04-07T17:47:40.757Z,3.77
2018-04-07T17:50:07.042Z,3.97
2018-04-07T17:52:33.312Z,4.40
2018-04-07T17:54:59.569Z,5.73
2018-04-07T17:57:25.826Z,4.03
2018-04-07T17:59:52.163Z,4.27
2018-04-07T18:02:18.417Z,4.27
2018-04-07T18:04:44.752Z,4.73
2018-04-07T18:07:11.024Z,4.73
2018-04-07T18:09:37.315Z,4.97
2018-04-07T18:12:03.590Z,4.20
2018-04-07T18:14:29.871Z,3.60
2018-04-07T18:16:56.148Z,3.83
2018-04-07T18:19:22.422Z,5.33
2018-04-07T18:21:48.663Z,19.03
2018-04-07T18:24:14.899Z,8.93
2018-04-07T18:26:41.128Z,4.57
2018-04-07T18:29:07.525Z,4.30
2018-04-07T18:31:33.802Z,3.60
2018-04-07T18:34:00.094Z,4.20
2018-04-07T18:36:26.456Z,4.07
2018-04-07T18:38:52.741Z,3.83
2018-04-07T18:41:19.042Z,6.57
2018-04-07T18:43:45.303Z,5.83
2018-04-07T18:46:11.564Z,3.53
2018-04-07T18:48:37.796Z,4.70
2018-04-07T18:51:04.074Z,3.93
2018-04-07T18:53:30.349Z,4.43
2018-04-07T18:55:56.629Z,4.43
2018-04-07T18:58:22.960Z,11.57
2018-04-07T19:00:49.200Z,6.17
2018-04-07T19:03:15.489Z,10.63
2018-04-07T19:05:41.742Z,5.33
2018-04-07T19:08:08.045Z,6.83
2018-04-07T19:10:34.311Z,7.43
2018-04-07T19:13:00.570Z,6.10
2018-04-07T19:15:26.796Z,4.40
2018-04-07T19:17:53.037Z,4.93
2018-04-07T19:20:19.304Z,4.77
2018-04-07T19:22:45.540Z,4.93
2018-04-07T19:25:11.888Z,4.90
2018-04-07T19:27:38.148Z,4.80
2018-04-07T19:30:04.412Z,5.40
2018-04-07T19:32:30.674Z,7.90
2018-04-07T19:34:57.013Z,4.97
2018-04-07T19:37:23.252Z,5.33
2018-04-07T19:39:49.488Z,5.20
2018-04-07T19:42:15.760Z,4.70
2018-04-07T19:44:42.081Z,5.13
2018-04-07T19:47:08.314Z,4.97
2018-04-07T19:49:34.582Z,5.00
2018-04-07T19:52:00.849Z,7.40
2018-04-07T19:54:27.122Z,5.03
2018-04-07T19:56:53.468Z,4.57
2018-04-07T19:59:19.697Z,5.23
2018-04-07T20:01:45.943Z,4.93
2018-04-07T20:04:12.205Z,4.63
2018-04-07T20:06:39.170Z,5.10
2018-04-07T20:09:05.459Z,4.83
2018-04-07T20:11:31.748Z,4.70
2018-04-07T20:13:57.996Z,5.20
2018-04-07T20:16:24.234Z,8.77
2018-04-07T20:18:50.508Z,6.53
2018-04-07T20:21:16.766Z,27.50
2018-04-07T20:23:43.004Z,7.57
2018-04-07T20:26:09.381Z,5.50
2018-04-07T20:28:35.652Z,6.13
2018-04-07T20:31:01.900Z,5.57
2018-04-07T20:33:28.188Z,5.90
2018-04-07T20:35:54.629Z,6.50
2018-04-07T20:38:20.980Z,9.43
2018-04-07T20:40:55.386Z,10.63
2018-04-07T20:43:21.673Z,7.27
2018-04-07T20:45:48.065Z,7.07
2018-04-07T20:48:14.332Z,7.47
2018-04-07T20:50:40.585Z,7.50
2018-04-07T20:53:06.892Z,6.83
2018-04-07T20:55:33.161Z,6.90
2018-04-07T20:57:59.495Z,7.57
2018-04-07T21:00:25.800Z,8.00
2018-04-07T21:02:52.141Z,7.60
2018-04-07T21:05:18.460Z,6.97
2018-04-07T21:07:44.821Z,7.83
2018-04-07T21:10:11.126Z,7.93
2018-04-07T21:12:37.407Z,7.50
2018-04-07T21:15:03.699Z,8.00
2018-04-07T21:17:29.999Z,7.23
2018-04-07T21:19:56.249Z,7.53
2018-04-07T21:22:22.493Z,9.97
2018-04-07T21:24:48.772Z,10.93
2018-04-07T21:27:15.049Z,7.90
2018-04-07T21:29:41.305Z,7.40
2018-04-07T21:32:07.854Z,7.47
2018-04-07T21:34:34.093Z,8.07
2018-04-07T21:37:00.369Z,8.37
2018-04-07T21:39:26.655Z,8.07
2018-04-07T21:41:52.921Z,8.60
2018-04-07T21:44:19.196Z,8.73
2018-04-07T21:46:45.508Z,7.77
2018-04-07T21:49:11.766Z,8.27
2018-04-07T21:51:38.037Z,8.47
2018-04-07T21:54:04.332Z,8.37
2018-04-07T21:56:30.600Z,8.10
2018-04-07T21:58:56.875Z,8.83
2018-04-07T22:01:23.145Z,8.43
2018-04-07T22:03:49.401Z,8.50
2018-04-07T22:06:15.769Z,8.83
2018-04-07T22:08:42.096Z,8.80
2018-04-07T22:11:08.396Z,8.10
2018-04-07T22:13:34.682Z,8.87
2018-04-07T22:16:00.967Z,7.63
2018-04-07T22:18:27.233Z,8.23
2018-04-07T22:20:53.491Z,9.13
2018-04-07T22:23:19.820Z,8.37
2018-04-07T22:25:46.132Z,8.37
2018-04-07T22:28:12.416Z,8.10
2018-04-07T22:30:38.814Z,8.80
2018-04-07T22:33:05.114Z,8.30
2018-04-07T22:35:31.415Z,9.17
2018-04-07T22:37:57.772Z,8.77
2018-04-07T22:40:24.165Z,8.80
2018-04-07T22:42:50.440Z,8.43
2018-04-07T22:45:16.713Z,8.77
2018-04-07T22:47:42.968Z,8.33
2018-04-07T22:50:09.241Z,8.30
2018-04-07T22:52:35.533Z,8.67
2018-04-07T22:55:01.817Z,7.80
2018-04-07T22:57:28.061Z,8.50
2018-04-07T22:59:54.358Z,8.10
2018-04-07T23:02:20.613Z,8.30
2018-04-07T23:04:46.952Z,8.23
2018-04-07T23:07:13.238Z,8.17
2018-04-07T23:09:39.489Z,8.03
2018-04-07T23:12:05.732Z,8.23
2018-04-07T23:14:32.009Z,8.87
2018-04-07T23:16:58.263Z,8.77
2018-04-07T23:19:24.496Z,8.73
2018-04-07T23:21:50.809Z,9.03
2018-04-07T23:24:17.092Z,8.53
2018-04-07T23:26:43.352Z,8.80
2018-04-07T23:29:09.645Z,8.33
2018-04-07T23:31:35.884Z,9.37
2018-04-07T23:34:02.149Z,8.40
2018-04-07T23:36:28.441Z,9.13
2018-04-07T23:38:54.684Z,8.80
2018-04-07T23:41:20.942Z,8.77
2018-04-07T23:43:47.220Z,8.43
2018-04-07T23:46:13.461Z,8.37
2018-04-07T23:48:39.715Z,8.90
2018-04-07T23:51:06.029Z,9.00
2018-04-07T23:53:32.293Z,9.30
2018-04-07T23:55:58.567Z,9.13
2018-04-07T23:58:24.848Z,9.60
